createdAt,value
2023-02-12T00:00:01.004Z,0.875
2023-02-12T00:01:04.424Z,0.31666666666666665
2023-02-12T00:02:01.395Z,0.8333333333333333
2023-02-12T00:03:02.612Z,0.9138888888888889
2023-02-12T00:04:02.115Z,0.5972222222222222
2023-02-12T00:05:01.834Z,1.7472222222222222
2023-02-12T00:06:01.975Z,0.9944444444444445
2023-02-12T00:07:01.056Z,0.35833333333333334
2023-02-12T00:08:01.164Z,1.0333333333333334
2023-02-12T00:09:01.074Z,0.9527777777777778
2023-02-12T00:10:01.461Z,1.152777777777778
2023-02-12T00:11:01.096Z,0.5972222222222222
2023-02-12T00:12:01.105Z,0.15833333333333333
2023-02-12T00:13:01.310Z,0.7555555555555555
2023-02-12T00:14:01.108Z,0.5166666666666667
2023-02-12T00:15:01.123Z,0.5555555555555556
2023-02-12T00:16:01.178Z,0.7555555555555555
2023-02-12T00:17:01.123Z,0.47777777777777775
2023-02-12T00:18:01.131Z,0.5166666666666667
2023-02-12T00:19:01.703Z,1.1888888888888889
2023-02-12T00:20:01.125Z,0.9138888888888889
2023-02-12T00:21:01.659Z,0.5555555555555556
2023-02-12T00:22:01.205Z,0.7555555555555555
2023-02-12T00:23:01.327Z,1.0333333333333334
2023-02-12T00:24:01.970Z,0.7555555555555555
2023-02-12T00:25:02.554Z,0.675
2023-02-12T00:26:01.464Z,0.6277777777777777
2023-02-12T00:27:01.081Z,0.4361111111111111
2023-02-12T00:28:01.170Z,0.9138888888888889
2023-02-12T00:29:01.097Z,0.7944444444444444
2023-02-12T00:30:01.102Z,0.19999999999999998
2023-02-12T00:31:01.198Z,0.2972222222222222
2023-02-12T00:32:01.167Z,0.5555555555555556
2023-02-12T00:33:01.819Z,0.31666666666666665
2023-02-12T00:34:01.160Z,0.31666666666666665
2023-02-12T00:35:01.539Z,0.5416666666666666
2023-02-12T00:36:01.057Z,0.40555555555555556
2023-02-12T00:37:01.060Z,1.1916666666666667
2023-02-12T00:38:01.152Z,0.03888888888888889
2023-02-12T00:39:01.163Z,0.4361111111111111
2023-02-12T00:40:01.793Z,0.2777777777777778
2023-02-12T00:41:01.794Z,0.024999999999999998
2023-02-12T00:42:01.439Z,0.675
2023-02-12T00:43:02.198Z,0.25833333333333336
2023-02-12T00:44:02.314Z,0.25833333333333336
2023-02-12T00:45:01.103Z,0.875
2023-02-12T00:46:01.139Z,0.41944444444444445
2023-02-12T00:47:01.106Z,0.31666666666666665
2023-02-12T00:48:01.114Z,0.6361111111111111
2023-02-12T00:49:01.502Z,0.3111111111111111
2023-02-12T00:50:01.189Z,0.35833333333333334
2023-02-12T00:51:02.780Z,0.5277777777777778
2023-02-12T00:52:06.888Z,0.6361111111111111
2023-02-12T00:53:05.110Z,0.8333333333333333
2023-02-12T00:54:01.340Z,0.5361111111111111
2023-02-12T00:55:01.144Z,0.5972222222222222
2023-02-12T00:56:05.558Z,0.6527777777777778
2023-02-12T00:57:01.186Z,0.6361111111111111
2023-02-12T00:58:01.561Z,0.5555555555555556
2023-02-12T00:59:01.128Z,0.4361111111111111
2023-02-12T01:00:01.092Z,0.8333333333333333
2023-02-12T01:01:09.595Z,1.0944444444444443
2023-02-12T01:02:02.512Z,0.8333333333333333
2023-02-12T01:03:01.312Z,0.3972222222222222
2023-02-12T01:04:04.515Z,1.0555555555555556
2023-02-12T01:05:02.356Z,0.911111111111111
2023-02-12T01:06:12.680Z,1.0333333333333334
2023-02-12T01:07:01.566Z,0.7555555555555555
2023-02-12T01:08:01.875Z,0.5972222222222222
2023-02-12T01:09:03.172Z,0.575
2023-02-12T01:10:01.162Z,0.5972222222222222
2023-02-12T01:11:14.631Z,0.6777777777777777
2023-02-12T01:12:01.744Z,1.0333333333333334
2023-02-12T01:13:01.754Z,0.8333333333333333
2023-02-12T01:14:02.132Z,0.6861111111111111
2023-02-12T01:15:02.303Z,0.7166666666666667
2023-02-12T01:16:01.247Z,0.7555555555555555
2023-02-12T01:17:01.922Z,1.2722222222222221
2023-02-12T01:18:01.875Z,0.5555555555555556
2023-02-12T01:19:01.059Z,0.5972222222222222
2023-02-12T01:20:03.350Z,0.675
2023-02-12T01:21:01.183Z,0.5555555555555556
2023-02-12T01:22:01.199Z,0.5555555555555556
2023-02-12T01:23:01.209Z,0.7555555555555555
2023-02-12T01:24:01.550Z,0.7416666666666666
2023-02-12T01:25:02.225Z,0.7944444444444444
2023-02-12T01:26:01.183Z,0.35833333333333334
2023-02-12T01:27:01.168Z,0.5972222222222222
2023-02-12T01:28:01.107Z,0.47777777777777775
2023-02-12T01:29:01.191Z,0.4361111111111111
2023-02-12T01:30:02.657Z,0.5555555555555556
2023-02-12T01:31:02.189Z,0.8333333333333333
2023-02-12T01:32:01.289Z,0.875
2023-02-12T01:33:01.657Z,0.47777777777777775
2023-02-12T01:34:01.490Z,0.35
2023-02-12T01:35:02.169Z,0.46944444444444444
2023-02-12T01:36:01.130Z,0.47777777777777775
2023-02-12T01:37:01.142Z,1.2305555555555554
2023-02-12T01:38:01.184Z,0.8333333333333333
2023-02-12T01:39:01.138Z,0.675
2023-02-12T01:40:01.158Z,0.9944444444444445
2023-02-12T01:41:02.394Z,0.9138888888888889
2023-02-12T01:42:01.549Z,1.152777777777778
2023-02-12T01:43:01.273Z,0.47777777777777775
2023-02-12T01:44:01.166Z,0.6
2023-02-12T01:45:01.067Z,0.35833333333333334
2023-02-12T01:46:01.071Z,0.7944444444444444
2023-02-12T01:47:01.083Z,0.9944444444444445
2023-02-12T01:48:01.106Z,0.875
2023-02-12T01:49:01.088Z,1.1916666666666667
2023-02-12T01:50:01.270Z,0.7555555555555555
2023-02-12T01:51:01.306Z,0.675
2023-02-12T01:52:01.120Z,0.5972222222222222
2023-02-12T01:53:01.085Z,0.9138888888888889
2023-02-12T01:54:01.183Z,0.2833333333333333
2023-02-12T01:55:01.640Z,0.6361111111111111
2023-02-12T01:56:01.878Z,1.152777777777778
2023-02-12T01:57:01.578Z,0.19999999999999998
2023-02-12T01:58:02.627Z,0.7944444444444444
2023-02-12T01:59:01.449Z,0.6583333333333333
2023-02-12T02:00:02.373Z,0
2023-02-12T02:01:01.076Z,0.5972222222222222
2023-02-12T02:02:01.311Z,0.9527777777777778
2023-02-12T02:03:02.572Z,0.5972222222222222
2023-02-12T02:04:02.005Z,0.5166666666666667
2023-02-12T02:05:01.169Z,0.4361111111111111
2023-02-12T02:06:01.097Z,0.5555555555555556
2023-02-12T02:07:01.513Z,1.0499999999999998
2023-02-12T02:08:01.248Z,0.5972222222222222
2023-02-12T02:09:04.405Z,0
2023-02-12T02:10:02.160Z,0
2023-02-12T02:11:02.286Z,0.5166666666666667
2023-02-12T02:12:01.160Z,0.6166666666666667
2023-02-12T02:13:01.171Z,0.7138888888888888
2023-02-12T02:14:00.759Z,0.6138888888888888
2023-02-12T02:15:00.561Z,0.5166666666666667
2023-02-12T02:16:00.421Z,0.5166666666666667
2023-02-12T02:17:00.264Z,0.8861111111111111
2023-02-12T02:18:00.039Z,1.55
2023-02-12T02:18:59.844Z,0.7944444444444444
2023-02-12T02:20:01.862Z,0.7944444444444444
2023-02-12T02:21:01.773Z,0.5555555555555556
2023-02-12T02:22:01.113Z,0.49166666666666664
2023-02-12T02:23:01.078Z,0.47777777777777775
2023-02-12T02:24:01.109Z,0.5694444444444444
2023-02-12T02:25:01.347Z,0.3972222222222222
2023-02-12T02:26:01.455Z,0.5972222222222222
2023-02-12T02:27:02.967Z,0.6499999999999999
2023-02-12T02:28:03.059Z,0.22777777777777775
2023-02-12T02:29:01.203Z,0.7138888888888888
2023-02-12T02:30:02.448Z,0.5555555555555556
2023-02-12T02:31:01.224Z,0.4361111111111111
2023-02-12T02:32:02.025Z,1.0694444444444444
2023-02-12T02:33:01.168Z,0.5555555555555556
2023-02-12T02:34:01.810Z,0.5972222222222222
2023-02-12T02:35:04.310Z,0.7138888888888888
2023-02-12T02:36:01.485Z,0.7277777777777777
2023-02-12T02:37:02.589Z,0.5916666666666667
2023-02-12T02:38:01.115Z,0.3972222222222222
2023-02-12T02:39:00.693Z,0.3972222222222222
2023-02-12T02:40:00.395Z,0.3972222222222222
2023-02-12T02:41:00.095Z,0.3972222222222222
2023-02-12T02:42:03.803Z,0.6361111111111111
2023-02-12T02:43:01.118Z,0.5166666666666667
2023-02-12T02:44:01.122Z,0.47777777777777775
2023-02-12T02:45:01.522Z,0.4305555555555556
2023-02-12T02:46:01.166Z,0.7944444444444444
2023-02-12T02:47:07.888Z,0.4305555555555556
2023-02-12T02:48:01.172Z,0.675
2023-02-12T02:49:01.063Z,0.4361111111111111
2023-02-12T02:50:01.413Z,0.5972222222222222
2023-02-12T02:51:01.084Z,0.9527777777777778
2023-02-12T02:52:10.456Z,0.5277777777777778
2023-02-12T02:53:01.463Z,0.6083333333333333
2023-02-12T02:54:02.097Z,0.5944444444444444
2023-02-12T02:55:01.056Z,0.3972222222222222
2023-02-12T02:56:01.473Z,0.35833333333333334
2023-02-12T02:57:14.221Z,0.4555555555555555
2023-02-12T02:58:01.144Z,0.2777777777777778
2023-02-12T02:59:01.131Z,0.7944444444444444
2023-02-12T03:00:01.142Z,0.3972222222222222
2023-02-12T03:01:01.225Z,0
2023-02-12T03:02:16.229Z,0.36944444444444446
2023-02-12T03:03:02.150Z,0.11111111111111112
2023-02-12T03:04:01.285Z,0
2023-02-12T03:05:01.155Z,0.4361111111111111
2023-02-12T03:06:01.069Z,0.15833333333333333
2023-02-12T03:07:01.089Z,0.8333333333333333
2023-02-12T03:08:01.170Z,0.23888888888888887
2023-02-12T03:09:01.079Z,0.5972222222222222
2023-02-12T03:10:01.083Z,0.11944444444444444
2023-02-12T03:11:01.083Z,0
2023-02-12T03:12:01.123Z,0.23888888888888887
2023-02-12T03:13:01.480Z,0
2023-02-12T03:14:01.212Z,0.31666666666666665
2023-02-12T03:15:01.768Z,0
2023-02-12T03:16:01.568Z,0.2777777777777778
2023-02-12T03:17:01.153Z,0
2023-02-12T03:18:01.158Z,0.5972222222222222
2023-02-12T03:19:01.151Z,0.19999999999999998
2023-02-12T03:20:01.378Z,0
2023-02-12T03:21:01.476Z,0
2023-02-12T03:22:01.137Z,0.23888888888888887
2023-02-12T03:23:01.072Z,0.5166666666666667
2023-02-12T03:24:01.807Z,0.4361111111111111
2023-02-12T03:25:01.854Z,0.41666666666666663
2023-02-12T03:26:01.395Z,0
2023-02-12T03:27:01.120Z,0
2023-02-12T03:28:01.466Z,0.3972222222222222
2023-02-12T03:29:01.222Z,0.47777777777777775
2023-02-12T03:30:01.114Z,0
2023-02-12T03:31:01.210Z,0
2023-02-12T03:32:01.165Z,0
2023-02-12T03:33:01.141Z,0
2023-02-12T03:34:01.156Z,0
2023-02-12T03:35:01.154Z,0.675
2023-02-12T03:36:01.144Z,0.47777777777777775
2023-02-12T03:37:01.157Z,0.5972222222222222
2023-02-12T03:38:01.583Z,0.8972222222222221
2023-02-12T03:39:00.847Z,0.47777777777777775
2023-02-12T03:40:00.469Z,0.4361111111111111
2023-02-12T03:41:00.068Z,0.5166666666666667
2023-02-12T03:41:59.834Z,0.35833333333333334
2023-02-12T03:43:02.646Z,0.5166666666666667
2023-02-12T03:44:01.850Z,0.5555555555555556
2023-02-12T03:45:01.794Z,0.6361111111111111
2023-02-12T03:46:02.070Z,0.6361111111111111
2023-02-12T03:47:01.106Z,0.15833333333333333
2023-02-12T03:48:01.171Z,0
2023-02-12T03:49:01.052Z,0
2023-02-12T03:50:01.157Z,0.23888888888888887
2023-02-12T03:51:01.442Z,0.3972222222222222
2023-02-12T03:52:01.169Z,0.08055555555555555
2023-02-12T03:53:01.853Z,0
2023-02-12T03:54:01.327Z,0
2023-02-12T03:55:01.302Z,0.15833333333333333
2023-02-12T03:56:01.285Z,0.47777777777777775
2023-02-12T03:57:02.505Z,0.225
2023-02-12T03:58:01.118Z,0.5972222222222222
2023-02-12T03:59:01.110Z,0.31666666666666665
2023-02-12T04:00:01.115Z,0.5361111111111111
2023-02-12T04:01:01.137Z,0.11944444444444444
2023-02-12T04:02:01.210Z,0.5166666666666667
2023-02-12T04:03:01.337Z,0.17777777777777778
2023-02-12T04:04:01.952Z,0
2023-02-12T04:05:01.001Z,0.35833333333333334
2023-02-12T04:06:01.170Z,0.19722222222222222
2023-02-12T04:07:01.141Z,0.7138888888888888
2023-02-12T04:08:01.343Z,0.6777777777777777
2023-02-12T04:09:01.284Z,0.5166666666666667
2023-02-12T04:10:02.608Z,0.4305555555555556
2023-02-12T04:11:02.198Z,0.5555555555555556
2023-02-12T04:12:01.103Z,0
2023-02-12T04:13:00.857Z,0.024999999999999998
2023-02-12T04:14:00.576Z,0.5166666666666667
2023-02-12T04:15:00.304Z,0.3972222222222222
2023-02-12T04:16:00.156Z,0.47777777777777775
2023-02-12T04:16:59.927Z,0.31666666666666665
2023-02-12T04:18:01.869Z,0.5277777777777778
2023-02-12T04:19:01.117Z,0.7555555555555555
2023-02-12T04:20:01.155Z,0.3972222222222222
2023-02-12T04:21:01.118Z,0.35833333333333334
2023-02-12T04:22:01.746Z,0.2777777777777778
2023-02-12T04:23:04.662Z,0.19722222222222222
2023-02-12T04:24:01.360Z,0
2023-02-12T04:25:02.063Z,0.23888888888888887
2023-02-12T04:26:01.153Z,0.9527777777777778
2023-02-12T04:27:01.060Z,0.31666666666666665
2023-02-12T04:28:06.437Z,1.0444444444444443
2023-02-12T04:29:01.474Z,0.4361111111111111
2023-02-12T04:30:02.209Z,0.4361111111111111
2023-02-12T04:31:01.252Z,0.47777777777777775
2023-02-12T04:32:01.120Z,0.675
2023-02-12T04:33:09.565Z,0.36944444444444446
2023-02-12T04:34:01.120Z,0.47777777777777775
2023-02-12T04:35:01.790Z,0.31666666666666665
2023-02-12T04:36:01.510Z,0.32499999999999996
2023-02-12T04:37:01.129Z,0
2023-02-12T04:38:13.369Z,0.11111111111111112
2023-02-12T04:39:01.300Z,0
2023-02-12T04:40:02.063Z,0.4361111111111111
2023-02-12T04:41:01.477Z,0.5166666666666667
2023-02-12T04:42:01.785Z,0.3972222222222222
2023-02-12T04:43:16.305Z,0.09722222222222221
2023-02-12T04:44:01.485Z,0.6555555555555556
2023-02-12T04:45:03.289Z,0.33888888888888885
2023-02-12T04:46:01.146Z,0.35833333333333334
2023-02-12T04:47:01.090Z,0
2023-02-12T04:48:01.092Z,0
2023-02-12T04:49:01.271Z,0
2023-02-12T04:50:01.543Z,0
2023-02-12T04:51:02.059Z,0
2023-02-12T04:52:01.158Z,0
2023-02-12T04:53:01.055Z,0
2023-02-12T04:54:01.167Z,0
2023-02-12T04:55:01.059Z,0
2023-02-12T04:56:01.144Z,0
2023-02-12T04:57:01.171Z,0
2023-02-12T04:58:01.165Z,0
2023-02-12T04:59:01.564Z,0
2023-02-12T05:00:01.190Z,0
2023-02-12T05:01:04.059Z,0
2023-02-12T05:02:01.111Z,0
2023-02-12T05:03:01.089Z,0
2023-02-12T05:04:01.078Z,0
2023-02-12T05:05:01.142Z,0.4361111111111111
2023-02-12T05:06:01.914Z,0.5555555555555556
2023-02-12T05:07:01.542Z,0.3972222222222222
2023-02-12T05:08:00.731Z,0
2023-02-12T05:09:00.499Z,0
2023-02-12T05:10:00.130Z,0
2023-02-12T05:10:59.782Z,0.31666666666666665
2023-02-12T05:12:01.444Z,0.2777777777777778
2023-02-12T05:13:02.079Z,0.5555555555555556
2023-02-12T05:14:01.807Z,0.7555555555555555
2023-02-12T05:15:01.062Z,0.22222222222222224
2023-02-12T05:16:00.804Z,0.19999999999999998
2023-02-12T05:17:00.555Z,0.4361111111111111
2023-02-12T05:18:00.256Z,0
2023-02-12T05:18:59.962Z,0
2023-02-12T05:19:59.866Z,0
2023-02-12T05:21:00.017Z,0
2023-02-12T05:21:59.808Z,0
2023-02-12T05:23:01.529Z,0.07777777777777778
2023-02-12T05:24:01.525Z,0
2023-02-12T05:25:01.194Z,0.2972222222222222
2023-02-12T05:26:01.151Z,0.11944444444444444
2023-02-12T05:27:01.147Z,0
2023-02-12T05:28:01.201Z,0
2023-02-12T05:29:01.540Z,0
2023-02-12T05:30:01.155Z,0
2023-02-12T05:31:01.340Z,0
2023-02-12T05:32:01.448Z,0
2023-02-12T05:33:01.564Z,0
2023-02-12T05:34:01.380Z,0
2023-02-12T05:35:01.086Z,0
2023-02-12T05:36:01.097Z,0
2023-02-12T05:37:01.102Z,0
2023-02-12T05:38:01.372Z,0
2023-02-12T05:39:01.108Z,0
2023-02-12T05:40:01.112Z,0
2023-02-12T05:41:01.123Z,0
2023-02-12T05:42:02.368Z,0
2023-02-12T05:43:01.144Z,0
2023-02-12T05:44:01.081Z,0
2023-02-12T05:45:01.060Z,0
2023-02-12T05:46:01.602Z,0
2023-02-12T05:47:01.891Z,0
2023-02-12T05:48:02.390Z,0
2023-02-12T05:49:01.721Z,0
2023-02-12T05:50:01.204Z,0
2023-02-12T05:51:02.041Z,0
2023-02-12T05:52:01.783Z,0
2023-02-12T05:53:01.104Z,0
2023-02-12T05:54:01.471Z,0
2023-02-12T05:55:01.069Z,0.19999999999999998
2023-02-12T05:56:03.973Z,0
2023-02-12T05:57:01.149Z,0
2023-02-12T05:58:01.137Z,0
2023-02-12T05:59:01.160Z,0
2023-02-12T06:00:02.024Z,0
2023-02-12T06:01:04.536Z,0
2023-02-12T06:02:01.516Z,0
2023-02-12T06:03:01.552Z,0
2023-02-12T06:04:02.145Z,0
2023-02-12T06:05:02.096Z,0
2023-02-12T06:06:02.192Z,0
2023-02-12T06:07:02.887Z,0
2023-02-12T06:08:01.108Z,0
2023-02-12T06:09:04.069Z,0
2023-02-12T06:10:01.548Z,0
2023-02-12T06:11:01.070Z,0
2023-02-12T06:12:01.110Z,0
2023-02-12T06:13:01.136Z,0
2023-02-12T06:14:06.067Z,0
2023-02-12T06:15:01.559Z,0
2023-02-12T06:16:01.588Z,0
2023-02-12T06:17:01.169Z,0
2023-02-12T06:18:01.153Z,0
2023-02-12T06:19:08.434Z,0
2023-02-12T06:20:01.162Z,0
2023-02-12T06:21:00.972Z,0
2023-02-12T06:22:01.068Z,0
2023-02-12T06:23:01.101Z,0
2023-02-12T06:24:11.522Z,0
2023-02-12T06:25:01.329Z,0
2023-02-12T06:26:01.108Z,0
2023-02-12T06:27:01.122Z,0
2023-02-12T06:28:02.182Z,0
2023-02-12T06:29:14.225Z,0
2023-02-12T06:30:02.053Z,0
2023-02-12T06:31:01.748Z,0
2023-02-12T06:32:02.881Z,0
2023-02-12T06:33:01.242Z,0
2023-02-12T06:34:01.163Z,0
2023-02-12T06:35:01.192Z,0
2023-02-12T06:36:01.175Z,0
2023-02-12T06:37:01.207Z,0
2023-02-12T06:38:02.571Z,0
2023-02-12T06:39:01.792Z,0
2023-02-12T06:40:01.545Z,0
2023-02-12T06:41:02.511Z,0
2023-02-12T06:42:01.836Z,0
2023-02-12T06:43:02.133Z,0
2023-02-12T06:44:02.575Z,0
2023-02-12T06:45:02.177Z,0
2023-02-12T06:46:01.120Z,0
2023-02-12T06:47:01.296Z,0
2023-02-12T06:48:00.977Z,0
2023-02-12T06:49:00.862Z,0
2023-02-12T06:50:00.636Z,0
2023-02-12T06:51:00.675Z,0
2023-02-12T06:52:03.154Z,0
2023-02-12T06:53:01.568Z,0
2023-02-12T06:54:02.151Z,0
2023-02-12T06:55:01.161Z,0
2023-02-12T06:56:01.903Z,0
2023-02-12T06:57:01.789Z,0
2023-02-12T06:58:01.003Z,0
2023-02-12T06:59:01.006Z,0
2023-02-12T07:00:01.381Z,0.3833333333333333
2023-02-12T07:01:01.117Z,0.15833333333333333
2023-02-12T07:02:02.241Z,0
2023-02-12T07:03:01.071Z,0
2023-02-12T07:04:03.130Z,0
2023-02-12T07:05:01.935Z,0
2023-02-12T07:06:01.381Z,0
2023-02-12T07:07:02.062Z,0
2023-02-12T07:08:01.178Z,0
2023-02-12T07:09:01.877Z,0
2023-02-12T07:10:01.788Z,0
2023-02-12T07:11:01.077Z,0
2023-02-12T07:12:01.013Z,0
2023-02-12T07:13:01.908Z,0
2023-02-12T07:14:02.012Z,0
2023-02-12T07:15:01.031Z,0
2023-02-12T07:16:01.043Z,0
2023-02-12T07:17:01.862Z,0
2023-02-12T07:18:01.176Z,0
2023-02-12T07:19:01.054Z,0
2023-02-12T07:20:01.450Z,0
2023-02-12T07:21:01.133Z,0
2023-02-12T07:22:01.136Z,0
2023-02-12T07:23:02.296Z,0
2023-02-12T07:24:02.832Z,0.3027777777777778
2023-02-12T07:25:01.964Z,0
2023-02-12T07:26:00.977Z,0.5555555555555556
2023-02-12T07:27:01.677Z,0.15833333333333333
2023-02-12T07:28:01.907Z,0.5166666666666667
2023-02-12T07:29:01.602Z,0.3972222222222222
2023-02-12T07:30:00.521Z,0
2023-02-12T07:31:00.418Z,0.2777777777777778
2023-02-12T07:32:00.354Z,0.23888888888888887
2023-02-12T07:32:59.979Z,0
2023-02-12T07:33:59.666Z,0
2023-02-12T07:35:01.577Z,0
2023-02-12T07:36:01.393Z,0
2023-02-12T07:37:01.194Z,0
2023-02-12T07:38:01.473Z,0
2023-02-12T07:39:01.939Z,0
2023-02-12T07:40:01.196Z,0
2023-02-12T07:41:00.672Z,0
2023-02-12T07:42:00.324Z,0
2023-02-12T07:42:59.941Z,0
2023-02-12T07:43:59.605Z,0
2023-02-12T07:45:01.294Z,0
2023-02-12T07:46:02.234Z,0
2023-02-12T07:47:01.150Z,0
2023-02-12T07:48:02.241Z,0
2023-02-12T07:49:01.012Z,0
2023-02-12T07:50:02.032Z,0
2023-02-12T07:51:01.019Z,0.23888888888888887
2023-02-12T07:52:00.958Z,0.19999999999999998
2023-02-12T07:53:01.318Z,0
2023-02-12T07:54:00.974Z,0
2023-02-12T07:55:03.912Z,0
2023-02-12T07:56:00.950Z,0
2023-02-12T07:57:00.957Z,0.15833333333333333
2023-02-12T07:58:01.026Z,0
2023-02-12T07:59:01.319Z,0
2023-02-12T08:00:06.562Z,0
2023-02-12T08:01:01.232Z,0
2023-02-12T08:02:02.636Z,0
2023-02-12T08:03:01.415Z,0
2023-02-12T08:04:01.111Z,0
2023-02-12T08:05:09.730Z,0
2023-02-12T08:06:01.019Z,0
2023-02-12T08:07:01.025Z,0
2023-02-12T08:08:01.388Z,0
2023-02-12T08:09:00.952Z,0
2023-02-12T08:10:11.388Z,0
2023-02-12T08:11:01.042Z,0
2023-02-12T08:12:01.166Z,0
2023-02-12T08:13:01.171Z,0
2023-02-12T08:14:01.174Z,0
2023-02-12T08:15:14.353Z,0
2023-02-12T08:16:01.550Z,0
2023-02-12T08:17:01.219Z,0
2023-02-12T08:18:01.234Z,0
2023-02-12T08:19:15.837Z,0
2023-02-12T08:20:16.217Z,0
2023-02-12T08:21:01.622Z,0
2023-02-12T08:22:01.124Z,0
2023-02-12T08:23:01.123Z,0
2023-02-12T08:24:01.132Z,0
2023-02-12T08:25:01.121Z,0
2023-02-12T08:26:01.981Z,0
2023-02-12T08:27:01.822Z,0
2023-02-12T08:28:01.249Z,0
2023-02-12T08:29:03.985Z,0
2023-02-12T08:30:01.449Z,0
2023-02-12T08:31:01.285Z,0
2023-02-12T08:32:01.358Z,0
2023-02-12T08:33:02.741Z,0
2023-02-12T08:34:01.936Z,0
2023-02-12T08:35:01.387Z,0
2023-02-12T08:36:01.748Z,0
2023-02-12T08:37:01.491Z,0
2023-02-12T08:38:02.642Z,0
2023-02-12T08:39:02.648Z,0
2023-02-12T08:40:01.221Z,0
2023-02-12T08:41:00.994Z,0
2023-02-12T08:42:01.149Z,0
2023-02-12T08:43:01.133Z,0
2023-02-12T08:44:01.145Z,0
2023-02-12T08:45:01.152Z,0
2023-02-12T08:46:01.260Z,0
2023-02-12T08:47:01.229Z,0.08055555555555555
2023-02-12T08:48:01.163Z,0
2023-02-12T08:49:01.201Z,0
2023-02-12T08:50:01.179Z,0
2023-02-12T08:51:01.314Z,0
2023-02-12T08:52:01.194Z,0
2023-02-12T08:53:01.188Z,0
2023-02-12T08:54:01.231Z,0
2023-02-12T08:55:01.234Z,0
2023-02-12T08:56:01.261Z,0
2023-02-12T08:57:01.635Z,0.21388888888888888
2023-02-12T08:58:00.904Z,0.15833333333333333
2023-02-12T08:59:00.632Z,0.11944444444444444
2023-02-12T09:00:00.338Z,0
2023-02-12T09:01:00.127Z,0
2023-02-12T09:02:00.099Z,0
2023-02-12T09:02:59.926Z,0
2023-02-12T09:03:59.810Z,0
2023-02-12T09:05:01.864Z,0
2023-02-12T09:06:01.871Z,0
2023-02-12T09:07:01.193Z,0
2023-02-12T09:08:01.231Z,0
2023-02-12T09:09:03.008Z,0
2023-02-12T09:10:01.100Z,0
2023-02-12T09:11:01.103Z,0
2023-02-12T09:12:01.096Z,0
2023-02-12T09:13:01.113Z,0
2023-02-12T09:14:01.218Z,0
2023-02-12T09:15:01.511Z,0
2023-02-12T09:16:01.125Z,0
2023-02-12T09:17:01.243Z,0
2023-02-12T09:18:02.061Z,0
2023-02-12T09:19:01.505Z,0
2023-02-12T09:20:01.158Z,0
2023-02-12T09:21:01.180Z,0
2023-02-12T09:22:02.090Z,0
2023-02-12T09:23:01.704Z,0
2023-02-12T09:24:01.228Z,0
2023-02-12T09:25:01.263Z,0
2023-02-12T09:26:01.101Z,0
2023-02-12T09:27:01.106Z,0
2023-02-12T09:28:01.113Z,0
2023-02-12T09:29:01.359Z,0
2023-02-12T09:30:02.245Z,0
2023-02-12T09:31:01.259Z,0.24722222222222223
2023-02-12T09:32:04.795Z,0
2023-02-12T09:33:01.154Z,0
2023-02-12T09:34:01.159Z,0
2023-02-12T09:35:01.204Z,0
2023-02-12T09:36:01.515Z,0
2023-02-12T09:37:01.171Z,0
2023-02-12T09:38:01.165Z,0
2023-02-12T09:39:01.076Z,0
2023-02-12T09:40:01.089Z,0
2023-02-12T09:41:01.100Z,0.18333333333333335
2023-02-12T09:42:00.901Z,0
2023-02-12T09:43:01.118Z,0
2023-02-12T09:44:01.140Z,0
2023-02-12T09:45:01.346Z,0
2023-02-12T09:46:01.920Z,0
2023-02-12T09:47:01.181Z,0.2777777777777778
2023-02-12T09:48:01.147Z,0
2023-02-12T09:49:01.825Z,0.15833333333333333
2023-02-12T09:50:01.841Z,0.23888888888888887
2023-02-12T09:51:04.591Z,0
2023-02-12T09:52:01.217Z,0
2023-02-12T09:53:01.180Z,0.19999999999999998
2023-02-12T09:54:01.557Z,0.29444444444444445
2023-02-12T09:55:01.186Z,0
2023-02-12T09:56:07.771Z,0
2023-02-12T09:57:08.757Z,0.5194444444444445
2023-02-12T09:58:01.110Z,0.3972222222222222
2023-02-12T09:59:01.170Z,0.4361111111111111
2023-02-12T10:00:01.132Z,0.31666666666666665
2023-02-12T10:01:09.911Z,0.40555555555555556
2023-02-12T10:02:00.849Z,0.15833333333333333
2023-02-12T10:03:01.736Z,1.0722222222222222
2023-02-12T10:04:02.076Z,0.23888888888888887
2023-02-12T10:05:02.488Z,0.35833333333333334
2023-02-12T10:06:10.785Z,0.3972222222222222
2023-02-12T10:07:01.148Z,0.5166666666666667
2023-02-12T10:08:01.155Z,0.5972222222222222
2023-02-12T10:09:01.184Z,0.35833333333333334
2023-02-12T10:10:01.192Z,0.2777777777777778
2023-02-12T10:11:13.910Z,0.011111111111111112
2023-02-12T10:12:01.997Z,0.2777777777777778
2023-02-12T10:13:01.203Z,0.7138888888888888
2023-02-12T10:14:01.458Z,0
2023-02-12T10:15:01.859Z,0.2833333333333333
2023-02-12T10:16:01.129Z,0.31666666666666665
2023-02-12T10:17:01.144Z,0.11944444444444444
2023-02-12T10:18:01.146Z,0.08055555555555555
2023-02-12T10:19:01.155Z,0.03888888888888889
2023-02-12T10:20:01.314Z,0.08055555555555555
2023-02-12T10:21:01.194Z,0
2023-02-12T10:22:01.149Z,0.08055555555555555
2023-02-12T10:23:01.554Z,0
2023-02-12T10:24:01.778Z,0.26666666666666666
2023-02-12T10:25:02.523Z,0.11944444444444444
2023-02-12T10:26:02.027Z,0.08055555555555555
2023-02-12T10:27:01.096Z,0
2023-02-12T10:28:01.140Z,0.23888888888888887
2023-02-12T10:29:01.095Z,0.19999999999999998
2023-02-12T10:30:01.140Z,0
2023-02-12T10:31:01.250Z,0.15833333333333333
2023-02-12T10:32:01.160Z,0
2023-02-12T10:33:01.516Z,0
2023-02-12T10:34:02.478Z,0.11944444444444444
2023-02-12T10:35:01.232Z,0.08055555555555555
2023-02-12T10:36:01.142Z,0.11944444444444444
2023-02-12T10:37:01.060Z,0.11944444444444444
2023-02-12T10:38:01.219Z,0.2777777777777778
2023-02-12T10:39:01.199Z,0.35833333333333334
2023-02-12T10:40:01.155Z,0.31666666666666665
2023-02-12T10:41:01.153Z,0.15833333333333333
2023-02-12T10:42:01.011Z,0.3972222222222222
2023-02-12T10:43:01.062Z,0
2023-02-12T10:44:01.179Z,0.15833333333333333
2023-02-12T10:45:01.080Z,0.11944444444444444
2023-02-12T10:46:01.147Z,0.35833333333333334
2023-02-12T10:47:01.116Z,0.4361111111111111
2023-02-12T10:48:01.294Z,0.19999999999999998
2023-02-12T10:49:01.235Z,0.15833333333333333
2023-02-12T10:50:01.306Z,0.47777777777777775
2023-02-12T10:51:01.246Z,0.5166666666666667
2023-02-12T10:52:01.200Z,0.15833333333333333
2023-02-12T10:53:01.886Z,0.31666666666666665
2023-02-12T10:54:01.208Z,0.11944444444444444
2023-02-12T10:55:01.060Z,0.35833333333333334
2023-02-12T10:56:01.047Z,0
2023-02-12T10:57:01.364Z,0.11944444444444444
2023-02-12T10:58:04.136Z,0.14444444444444446
2023-02-12T10:59:02.190Z,0
2023-02-12T11:00:02.215Z,0.31666666666666665
2023-02-12T11:01:02.213Z,0.11944444444444444
2023-02-12T11:02:01.666Z,0
2023-02-12T11:03:01.086Z,0.11944444444444444
2023-02-12T11:04:01.090Z,0.11944444444444444
2023-02-12T11:05:01.227Z,0
2023-02-12T11:06:01.119Z,0.23888888888888887